createdAt,value
2022-09-29T00:02:09.546Z,8.90
2022-09-29T00:04:36.266Z,8.90
2022-09-29T00:07:02.999Z,8.90
2022-09-29T00:09:29.680Z,8.80
2022-09-29T00:11:56.845Z,8.90
2022-09-29T00:14:23.795Z,8.80
2022-09-29T00:16:50.664Z,8.80
2022-09-29T00:19:17.676Z,8.80
2022-09-29T00:21:44.400Z,8.80
2022-09-29T00:24:11.640Z,8.80
2022-09-29T00:26:38.391Z,8.70
2022-09-29T00:29:05.111Z,8.70
2022-09-29T00:31:33.302Z,8.70
2022-09-29T00:34:00.096Z,8.60
2022-09-29T00:36:30.975Z,8.60
2022-09-29T00:38:59.104Z,8.60
2022-09-29T00:41:33.928Z,8.50
2022-09-29T00:44:08.045Z,8.50
2022-09-29T00:46:49.797Z,8.50
2022-09-29T00:49:43.372Z,8.50
2022-09-29T00:52:21.041Z,8.50
2022-09-29T00:54:52.023Z,8.50
2022-09-29T00:57:21.712Z,8.50
2022-09-29T00:59:57.706Z,8.40
2022-09-29T01:02:24.614Z,8.40
2022-09-29T01:04:53.800Z,8.50
2022-09-29T01:07:23.644Z,8.50
2022-09-29T01:09:52.581Z,8.50
2022-09-29T01:12:19.672Z,8.60
2022-09-29T01:14:47.583Z,8.60
2022-09-29T01:17:14.835Z,8.70
2022-09-29T01:20:05.540Z,8.70
2022-09-29T01:23:16.478Z,8.60
2022-09-29T01:26:07.989Z,8.60
2022-09-29T01:28:56.168Z,8.60
2022-09-29T01:31:30.345Z,8.50
2022-09-29T01:34:06.035Z,8.40
2022-09-29T01:36:44.778Z,8.40
2022-09-29T01:39:40.644Z,8.40
2022-09-29T01:42:15.531Z,8.40
2022-09-29T01:44:50.628Z,8.40
2022-09-29T01:47:39.864Z,8.40
2022-09-29T01:50:23.954Z,8.40
2022-09-29T01:52:57.315Z,8.50
2022-09-29T01:55:28.863Z,8.50
2022-09-29T01:58:02.516Z,8.40
2022-09-29T02:00:32.462Z,8.40
2022-09-29T02:03:06.906Z,8.40
2022-09-29T02:05:51.037Z,8.40
2022-09-29T02:08:20.710Z,8.40
2022-09-29T02:10:58.944Z,8.50
2022-09-29T02:13:26.479Z,8.50
2022-09-29T02:15:57.355Z,8.50
2022-09-29T02:18:29.775Z,8.50
2022-09-29T02:20:56.501Z,8.50
2022-09-29T02:23:23.244Z,8.50
2022-09-29T02:25:51.966Z,8.60
2022-09-29T02:28:19.477Z,8.60
2022-09-29T02:30:46.321Z,8.70
2022-09-29T02:33:25.045Z,8.60
2022-09-29T02:36:33.229Z,8.60
2022-09-29T02:39:13.716Z,8.60
2022-09-29T02:41:52.414Z,8.60
2022-09-29T02:44:44.700Z,8.70
2022-09-29T02:47:33.243Z,8.70
2022-09-29T02:50:44.424Z,8.70
2022-09-29T02:53:29.123Z,8.70
2022-09-29T02:56:30.167Z,8.70
2022-09-29T02:59:12.108Z,8.70
2022-09-29T03:01:51.137Z,8.70
2022-09-29T03:04:19.700Z,8.70
2022-09-29T03:06:46.582Z,8.80
2022-09-29T03:09:13.328Z,8.80
2022-09-29T03:11:39.992Z,8.80
2022-09-29T03:14:06.755Z,8.70
2022-09-29T03:16:35.282Z,8.80
2022-09-29T03:19:02.216Z,8.80
2022-09-29T03:21:29.525Z,8.80
2022-09-29T03:23:57.801Z,8.80
2022-09-29T03:26:24.739Z,8.80
2022-09-29T03:28:52.592Z,8.80
2022-09-29T03:31:19.818Z,8.80
2022-09-29T03:33:46.780Z,8.80
2022-09-29T03:36:13.524Z,8.70
2022-09-29T03:38:40.442Z,8.70
2022-09-29T03:41:07.526Z,8.70
2022-09-29T03:43:34.224Z,8.80
2022-09-29T03:46:00.975Z,8.80
2022-09-29T03:48:31.159Z,8.80
2022-09-29T03:50:58.180Z,8.70
2022-09-29T03:53:25.030Z,8.70
2022-09-29T03:55:52.226Z,8.80
2022-09-29T03:58:19.300Z,8.80
2022-09-29T04:00:49.373Z,8.80
2022-09-29T04:03:16.345Z,8.80
2022-09-29T04:05:45.691Z,8.70
2022-09-29T04:08:13.076Z,8.70
2022-09-29T04:10:40.015Z,8.70
2022-09-29T04:13:07.417Z,8.60
2022-09-29T04:15:34.693Z,8.60
2022-09-29T04:18:01.457Z,8.60
2022-09-29T04:20:28.218Z,8.60
2022-09-29T04:22:54.966Z,8.60
2022-09-29T04:25:21.705Z,8.70
2022-09-29T04:27:48.424Z,8.60
2022-09-29T04:30:16.077Z,8.60
2022-09-29T04:32:42.936Z,8.50
2022-09-29T04:35:09.866Z,8.50
2022-09-29T04:37:36.622Z,8.50
2022-09-29T04:40:05.043Z,8.50
2022-09-29T04:42:31.940Z,8.50
2022-09-29T04:44:58.706Z,8.50
2022-09-29T04:47:25.529Z,8.60
2022-09-29T04:49:52.179Z,8.60
2022-09-29T04:52:18.877Z,8.60
2022-09-29T04:54:45.636Z,8.60
2022-09-29T04:57:12.305Z,8.60
2022-09-29T04:59:39.223Z,8.60
2022-09-29T05:02:06.240Z,8.60
2022-09-29T05:04:33.064Z,8.60
2022-09-29T05:06:59.772Z,8.60
2022-09-29T05:09:29.894Z,8.60
2022-09-29T05:11:59.252Z,8.60
2022-09-29T05:14:25.919Z,8.60
2022-09-29T05:16:54.978Z,8.60
2022-09-29T05:19:21.822Z,8.60
2022-09-29T05:21:48.518Z,8.60
2022-09-29T05:24:15.184Z,8.60
2022-09-29T05:26:41.992Z,8.70
2022-09-29T05:29:08.653Z,8.60
2022-09-29T05:31:35.347Z,8.60
2022-09-29T05:34:02.551Z,8.60
2022-09-29T05:36:29.406Z,8.70
2022-09-29T05:38:56.336Z,8.70
2022-09-29T05:41:23.223Z,8.70
2022-09-29T05:43:51.816Z,8.70
2022-09-29T05:46:18.823Z,8.70
2022-09-29T05:48:51.073Z,8.70
2022-09-29T05:51:22.771Z,8.70
2022-09-29T05:53:50.410Z,8.70
2022-09-29T05:56:20.196Z,8.80
2022-09-29T05:58:46.885Z,8.80
2022-09-29T06:01:22.265Z,8.80
2022-09-29T06:03:50.999Z,8.80
2022-09-29T06:06:20.897Z,8.90
2022-09-29T06:08:48.336Z,9.00
2022-09-29T06:11:18.130Z,8.90
2022-09-29T06:13:47.554Z,9.00
2022-09-29T06:16:15.960Z,9.00
2022-09-29T06:18:43.010Z,9.10
2022-09-29T06:21:15.459Z,9.20
2022-09-29T06:23:42.392Z,9.20
2022-09-29T06:26:11.612Z,9.30
2022-09-29T06:28:38.380Z,9.30
2022-09-29T06:31:13.661Z,9.30
2022-09-29T06:33:40.592Z,9.40
2022-09-29T06:36:34.544Z,9.40
2022-09-29T06:39:01.588Z,9.50
2022-09-29T06:41:30.029Z,9.50
2022-09-29T06:43:57.198Z,9.60
2022-09-29T06:46:26.886Z,9.70
2022-09-29T06:48:57.157Z,9.70
2022-09-29T06:51:35.789Z,9.70
2022-09-29T06:54:12.163Z,9.70
2022-09-29T06:56:39.846Z,9.70
2022-09-29T06:59:07.015Z,9.60
2022-09-29T07:01:34.092Z,9.60
2022-09-29T07:04:02.212Z,9.70
2022-09-29T07:06:29.572Z,9.80
2022-09-29T07:08:58.261Z,9.80
2022-09-29T07:11:26.276Z,9.90
2022-09-29T07:13:54.698Z,9.90
2022-09-29T07:16:24.012Z,10.00
2022-09-29T07:18:51.571Z,10.10
2022-09-29T07:21:19.029Z,10.10
2022-09-29T07:23:46.941Z,10.20
2022-09-29T07:26:16.436Z,10.20
2022-09-29T07:28:44.262Z,10.20
2022-09-29T07:31:15.537Z,10.20
2022-09-29T07:33:43.725Z,10.30
2022-09-29T07:36:10.614Z,10.30
2022-09-29T07:38:37.368Z,10.40
2022-09-29T07:41:06.248Z,10.50
2022-09-29T07:43:33.087Z,10.60
2022-09-29T07:46:02.942Z,10.70
2022-09-29T07:48:32.193Z,10.80
2022-09-29T07:51:12.250Z,10.90
2022-09-29T07:53:39.449Z,11.00
2022-09-29T07:56:10.532Z,11.10
2022-09-29T07:58:37.658Z,11.30
2022-09-29T08:01:10.301Z,11.30
2022-09-29T08:03:39.198Z,11.40
2022-09-29T08:06:07.412Z,11.30
2022-09-29T08:08:38.998Z,11.40
2022-09-29T08:11:17.105Z,11.40
2022-09-29T08:13:47.499Z,11.40
2022-09-29T08:16:15.172Z,11.30
2022-09-29T08:18:43.868Z,11.30
2022-09-29T08:21:12.059Z,11.40
2022-09-29T08:23:41.134Z,11.50
2022-09-29T08:26:25.987Z,11.60
2022-09-29T08:29:06.971Z,11.60
2022-09-29T08:31:35.501Z,11.70
2022-09-29T08:34:02.388Z,11.80
2022-09-29T08:36:29.393Z,11.80
2022-09-29T08:38:57.324Z,12.00
2022-09-29T08:41:52.220Z,12.20
2022-09-29T08:44:38.531Z,12.30
2022-09-29T08:47:18.221Z,12.40
2022-09-29T08:49:53.161Z,12.50
2022-09-29T08:52:26.941Z,12.50
2022-09-29T08:55:21.189Z,12.70
2022-09-29T08:57:55.238Z,12.90
2022-09-29T09:00:29.640Z,13.00
2022-09-29T09:03:20.724Z,13.10
2022-09-29T09:06:05.401Z,13.10
2022-09-29T09:08:50.338Z,13.10
2022-09-29T09:11:23.184Z,13.00
2022-09-29T09:13:49.892Z,13.20
2022-09-29T09:16:55.754Z,13.50
2022-09-29T09:19:57.734Z,13.70
2022-09-29T09:22:31.747Z,13.80
2022-09-29T09:25:20.535Z,14.00
2022-09-29T09:27:56.312Z,14.30
2022-09-29T09:30:23.673Z,14.30
2022-09-29T09:32:59.691Z,14.30
2022-09-29T09:35:48.221Z,14.20
2022-09-29T09:38:28.126Z,14.30
2022-09-29T09:40:58.365Z,14.40
2022-09-29T09:43:33.912Z,14.60
2022-09-29T09:46:19.048Z,15.10
2022-09-29T09:48:58.080Z,15.50
2022-09-29T09:51:45.481Z,15.60
2022-09-29T09:54:20.778Z,15.40
2022-09-29T09:57:20.871Z,15.50
2022-09-29T10:00:23.972Z,15.20
2022-09-29T10:02:52.972Z,15.10
2022-09-29T10:05:24.171Z,15.40
2022-09-29T10:07:52.236Z,15.50
2022-09-29T10:10:30.633Z,15.70
2022-09-29T10:13:05.480Z,16.20
2022-09-29T10:15:47.687Z,16.30
2022-09-29T10:18:29.322Z,16.10
2022-09-29T10:20:56.242Z,16.10
2022-09-29T10:23:36.485Z,16.20
2022-09-29T10:26:14.248Z,16.10
2022-09-29T10:29:02.600Z,16.10
2022-09-29T10:31:31.587Z,16.20
2022-09-29T10:34:18.503Z,16.10
2022-09-29T10:36:56.255Z,16.10
2022-09-29T10:39:48.152Z,16.30
2022-09-29T10:42:34.026Z,16.30
2022-09-29T10:45:21.791Z,16.00
2022-09-29T10:47:57.711Z,16.20
2022-09-29T10:50:34.895Z,16.50
2022-09-29T10:53:24.829Z,16.60
2022-09-29T10:55:54.911Z,16.70
2022-09-29T10:58:45.584Z,16.70
2022-09-29T11:01:25.863Z,16.80
2022-09-29T11:04:06.909Z,16.90
2022-09-29T11:06:39.364Z,16.90
2022-09-29T11:09:29.055Z,17.10
2022-09-29T11:12:04.113Z,17.10
2022-09-29T11:14:36.839Z,16.90
2022-09-29T11:17:23.589Z,16.90
2022-09-29T11:19:53.348Z,17.00
2022-09-29T11:22:31.747Z,16.90
2022-09-29T11:25:26.413Z,16.90
2022-09-29T11:27:58.583Z,17.00
2022-09-29T11:30:32.953Z,17.00
2022-09-29T11:33:38.306Z,17.10
2022-09-29T11:36:15.152Z,17.30
2022-09-29T11:39:29.797Z,17.30
2022-09-29T11:42:06.497Z,17.20
2022-09-29T11:45:00.527Z,17.00
2022-09-29T11:47:59.272Z,17.20
2022-09-29T11:50:38.036Z,17.10
2022-09-29T11:53:30.060Z,17.00
2022-09-29T11:56:15.100Z,17.10
2022-09-29T11:58:41.800Z,17.30
2022-09-29T12:01:11.511Z,17.40
2022-09-29T12:03:47.152Z,17.30
2022-09-29T12:06:48.387Z,17.30
2022-09-29T12:09:33.621Z,17.40
2022-09-29T12:12:24.585Z,17.50
2022-09-29T12:15:03.660Z,17.60
2022-09-29T12:17:35.881Z,17.50
2022-09-29T12:20:19.525Z,17.40
2022-09-29T12:22:48.594Z,17.70
2022-09-29T12:25:19.722Z,18.10
2022-09-29T12:27:48.190Z,18.40
2022-09-29T12:30:15.966Z,18.20
2022-09-29T12:32:51.316Z,18.10
2022-09-29T12:35:25.964Z,17.80
2022-09-29T12:37:57.129Z,17.60
2022-09-29T12:40:38.376Z,17.20
2022-09-29T12:43:30.489Z,17.10
2022-09-29T12:46:18.939Z,16.70
2022-09-29T12:49:25.396Z,16.60
2022-09-29T12:51:53.012Z,16.60
2022-09-29T12:54:32.885Z,16.50
2022-09-29T12:57:10.410Z,16.30
2022-09-29T12:59:39.573Z,16.20
2022-09-29T13:02:28.122Z,16.20
2022-09-29T13:05:03.728Z,16.10
2022-09-29T13:07:33.475Z,16.00
2022-09-29T13:10:27.423Z,15.90
2022-09-29T13:13:06.145Z,15.80
2022-09-29T13:15:54.594Z,15.70
2022-09-29T13:19:06.985Z,15.70
2022-09-29T13:21:59.180Z,15.50
2022-09-29T13:24:44.148Z,15.40
2022-09-29T13:27:27.213Z,15.30
2022-09-29T13:30:02.305Z,15.30
2022-09-29T13:32:30.721Z,15.30
2022-09-29T13:35:00.425Z,15.30
2022-09-29T13:37:43.038Z,15.10
2022-09-29T13:40:19.392Z,15.10
2022-09-29T13:42:47.488Z,15.10
2022-09-29T13:45:16.908Z,15.00
2022-09-29T13:47:53.781Z,15.00
2022-09-29T13:50:40.138Z,15.00
2022-09-29T13:53:22.218Z,14.90
2022-09-29T13:56:16.701Z,14.90
2022-09-29T13:58:43.340Z,14.80
2022-09-29T14:01:12.633Z,14.80
2022-09-29T14:03:44.348Z,14.70
2022-09-29T14:06:39.841Z,14.60
2022-09-29T14:09:15.709Z,14.60
2022-09-29T14:11:48.561Z,14.60
2022-09-29T14:14:15.158Z,14.50
2022-09-29T14:16:54.591Z,14.50
2022-09-29T14:19:36.459Z,14.50
2022-09-29T14:22:07.042Z,14.50
2022-09-29T14:24:36.844Z,14.40
2022-09-29T14:27:26.082Z,14.30
2022-09-29T14:30:09.461Z,14.20
2022-09-29T14:33:00.742Z,14.20
2022-09-29T14:35:39.477Z,14.10
2022-09-29T14:38:10.840Z,14.10
2022-09-29T14:40:37.680Z,14.10
2022-09-29T14:43:17.737Z,14.00
2022-09-29T14:46:37.375Z,14.00
2022-09-29T14:49:57.939Z,13.90
2022-09-29T14:52:52.019Z,13.90
2022-09-29T14:55:27.916Z,13.80
2022-09-29T14:58:10.073Z,13.80
2022-09-29T15:01:17.925Z,13.80
2022-09-29T15:03:50.183Z,13.80
2022-09-29T15:06:19.449Z,13.70
2022-09-29T15:08:59.917Z,13.70
2022-09-29T15:11:36.471Z,13.70
2022-09-29T15:14:27.227Z,13.70
2022-09-29T15:16:59.963Z,13.70
2022-09-29T15:20:08.129Z,13.70
2022-09-29T15:22:45.431Z,13.70
2022-09-29T15:25:40.719Z,13.70
2022-09-29T15:28:26.154Z,13.70
2022-09-29T15:30:54.780Z,13.70
2022-09-29T15:33:30.597Z,13.60
2022-09-29T15:35:59.230Z,13.60
2022-09-29T15:38:28.748Z,13.60
2022-09-29T15:40:59.205Z,13.60
2022-09-29T15:43:28.381Z,13.60
2022-09-29T15:46:02.841Z,13.60
2022-09-29T15:48:30.999Z,13.60
2022-09-29T15:50:58.397Z,13.60
2022-09-29T15:53:27.605Z,13.60
2022-09-29T15:55:55.684Z,13.60
2022-09-29T15:58:36.961Z,13.60
2022-09-29T16:01:06.422Z,13.60
2022-09-29T16:03:53.992Z,13.50
2022-09-29T16:06:31.784Z,13.40
2022-09-29T16:09:04.270Z,13.40
2022-09-29T16:11:36.095Z,13.30
2022-09-29T16:14:23.202Z,13.30
2022-09-29T16:16:52.355Z,13.20
2022-09-29T16:19:31.835Z,13.20
2022-09-29T16:22:01.748Z,13.20
2022-09-29T16:24:50.062Z,13.20
2022-09-29T16:27:40.728Z,13.10
2022-09-29T16:30:30.849Z,13.10
2022-09-29T16:33:04.562Z,13.10
2022-09-29T16:35:40.333Z,13.10
2022-09-29T16:38:17.935Z,13.00
2022-09-29T16:40:45.407Z,13.00
2022-09-29T16:43:22.902Z,13.00
2022-09-29T16:45:51.758Z,13.00
2022-09-29T16:48:19.799Z,12.90
2022-09-29T16:50:48.552Z,12.90
2022-09-29T16:53:27.180Z,12.80
2022-09-29T16:56:03.367Z,12.80
2022-09-29T16:58:30.360Z,12.80
2022-09-29T17:00:57.698Z,12.70
2022-09-29T17:03:24.529Z,12.70
2022-09-29T17:05:52.234Z,12.60
2022-09-29T17:08:22.869Z,12.60
2022-09-29T17:10:51.749Z,12.50
2022-09-29T17:13:19.720Z,12.50
2022-09-29T17:15:51.403Z,12.40
2022-09-29T17:18:19.935Z,12.40
2022-09-29T17:20:46.635Z,12.50
2022-09-29T17:23:13.291Z,12.40
2022-09-29T17:25:43.024Z,12.40
2022-09-29T17:28:19.340Z,12.40
2022-09-29T17:30:47.776Z,12.40
2022-09-29T17:33:16.943Z,12.40
2022-09-29T17:35:55.800Z,12.40
2022-09-29T17:38:23.779Z,12.40
2022-09-29T17:40:56.493Z,12.30
2022-09-29T17:43:24.291Z,12.30
2022-09-29T17:45:54.440Z,12.30
2022-09-29T17:48:21.442Z,12.40
2022-09-29T17:50:54.791Z,12.30
2022-09-29T17:53:21.799Z,12.30
2022-09-29T17:55:50.703Z,12.30
2022-09-29T17:58:18.636Z,12.30
2022-09-29T18:00:49.356Z,12.30
2022-09-29T18:03:18.569Z,12.20
2022-09-29T18:05:48.503Z,12.20
2022-09-29T18:08:18.054Z,12.30
2022-09-29T18:10:50.288Z,12.30
2022-09-29T18:13:16.959Z,12.30
2022-09-29T18:15:43.840Z,12.30
2022-09-29T18:18:13.048Z,12.20
2022-09-29T18:20:40.208Z,12.30
2022-09-29T18:23:06.958Z,12.20
2022-09-29T18:25:34.474Z,12.20
2022-09-29T18:28:02.673Z,12.20
2022-09-29T18:30:30.856Z,12.20
2022-09-29T18:32:59.743Z,12.20
2022-09-29T18:35:34.521Z,12.10
2022-09-29T18:38:02.116Z,12.10
2022-09-29T18:40:30.456Z,12.10
2022-09-29T18:42:58.859Z,12.10
2022-09-29T18:45:31.472Z,12.00
2022-09-29T18:48:03.872Z,12.00
2022-09-29T18:50:33.294Z,12.00
2022-09-29T18:53:01.686Z,11.90
2022-09-29T18:55:29.928Z,12.00
2022-09-29T18:57:58.401Z,11.90
2022-09-29T19:00:27.762Z,11.90
2022-09-29T19:02:54.538Z,11.90
2022-09-29T19:05:29.072Z,11.90
2022-09-29T19:07:59.416Z,11.90
2022-09-29T19:10:27.154Z,11.90
2022-09-29T19:12:58.748Z,11.80
2022-09-29T19:15:26.050Z,11.80
2022-09-29T19:17:56.798Z,11.80
2022-09-29T19:20:26.191Z,11.80
2022-09-29T19:22:54.293Z,11.80
2022-09-29T19:25:29.094Z,11.80
2022-09-29T19:27:56.854Z,11.80
2022-09-29T19:30:25.666Z,11.80
2022-09-29T19:32:53.812Z,11.80
2022-09-29T19:35:23.598Z,11.80
2022-09-29T19:37:51.599Z,11.70
2022-09-29T19:40:23.917Z,11.70
2022-09-29T19:42:51.301Z,11.70
2022-09-29T19:45:18.557Z,11.70
2022-09-29T19:47:45.346Z,11.60
2022-09-29T19:50:31.250Z,11.60
2022-09-29T19:52:58.066Z,11.60
2022-09-29T19:55:24.874Z,11.60
2022-09-29T19:57:51.987Z,11.50
2022-09-29T20:00:21.854Z,11.50
2022-09-29T20:02:48.825Z,11.50
2022-09-29T20:05:16.418Z,11.50
2022-09-29T20:07:44.417Z,11.50
2022-09-29T20:10:13.181Z,11.40
2022-09-29T20:12:40.257Z,11.40
2022-09-29T20:15:07.985Z,11.30
2022-09-29T20:17:35.311Z,11.30
2022-09-29T20:20:02.691Z,11.30
2022-09-29T20:22:31.521Z,11.20
2022-09-29T20:24:58.494Z,11.20
2022-09-29T20:27:25.186Z,11.20
2022-09-29T20:29:51.876Z,11.20
2022-09-29T20:32:19.394Z,11.10
2022-09-29T20:34:46.545Z,11.10
2022-09-29T20:37:14.601Z,11.00
2022-09-29T20:39:41.895Z,11.00
2022-09-29T20:42:08.833Z,11.00
2022-09-29T20:44:36.303Z,10.90
2022-09-29T20:47:03.046Z,10.90
2022-09-29T20:49:29.783Z,10.80
2022-09-29T20:51:57.136Z,10.90
2022-09-29T20:54:23.899Z,10.90
2022-09-29T20:56:52.125Z,10.90
2022-09-29T20:59:20.719Z,10.90
2022-09-29T21:01:48.897Z,10.80
2022-09-29T21:04:19.158Z,10.70
2022-09-29T21:06:48.915Z,10.60
2022-09-29T21:09:18.414Z,10.60
2022-09-29T21:11:47.056Z,10.60
2022-09-29T21:14:18.487Z,10.60
2022-09-29T21:16:48.573Z,10.50
2022-09-29T21:19:15.454Z,10.50
2022-09-29T21:21:43.888Z,10.40
2022-09-29T21:24:12.317Z,10.40
2022-09-29T21:26:39.492Z,10.40
2022-09-29T21:29:08.148Z,10.30
2022-09-29T21:31:36.009Z,10.30
2022-09-29T21:34:05.510Z,10.20
2022-09-29T21:36:34.286Z,10.20
2022-09-29T21:39:06.233Z,10.20
2022-09-29T21:41:37.568Z,10.10
2022-09-29T21:44:11.310Z,10.10
2022-09-29T21:46:39.060Z,10.10
2022-09-29T21:49:08.452Z,10.00
2022-09-29T21:51:38.398Z,10.00
2022-09-29T21:54:06.918Z,10.00
2022-09-29T21:56:41.484Z,10.00
2022-09-29T21:59:10.081Z,10.00
2022-09-29T22:01:39.782Z,10.00
2022-09-29T22:04:07.512Z,9.90
2022-09-29T22:06:36.105Z,9.90
2022-09-29T22:09:03.615Z,9.90
2022-09-29T22:11:33.789Z,9.80
2022-09-29T22:14:01.563Z,9.90
2022-09-29T22:16:33.715Z,9.90
2022-09-29T22:19:23.305Z,9.90
2022-09-29T22:21:50.967Z,9.80
2022-09-29T22:24:17.654Z,9.80
2022-09-29T22:26:44.381Z,9.80
2022-09-29T22:29:11.397Z,9.80
2022-09-29T22:31:40.161Z,9.70
2022-09-29T22:34:07.639Z,9.70
2022-09-29T22:36:35.557Z,9.70
2022-09-29T22:39:04.265Z,9.70
2022-09-29T22:41:31.382Z,9.70
2022-09-29T22:43:59.615Z,9.60
2022-09-29T22:46:28.976Z,9.60
2022-09-29T22:48:56.518Z,9.60
2022-09-29T22:51:23.216Z,9.50
2022-09-29T22:53:50.473Z,9.50
2022-09-29T22:56:19.756Z,9.50
2022-09-29T22:58:46.812Z,9.50
2022-09-29T23:01:16.055Z,9.50
2022-09-29T23:03:44.808Z,9.40
2022-09-29T23:06:12.677Z,9.40
2022-09-29T23:08:39.764Z,9.40
2022-09-29T23:11:07.972Z,9.40
2022-09-29T23:13:40.194Z,9.40
2022-09-29T23:16:12.334Z,9.40
2022-09-29T23:18:44.643Z,9.40
2022-09-29T23:21:18.992Z,9.40
2022-09-29T23:23:54.832Z,9.40
2022-09-29T23:26:22.673Z,9.40
2022-09-29T23:28:49.519Z,9.30
2022-09-29T23:31:16.257Z,9.30
2022-09-29T23:33:42.950Z,9.30
2022-09-29T23:36:12.351Z,9.30
2022-09-29T23:38:59.154Z,9.30
2022-09-29T23:41:30.026Z,9.20
2022-09-29T23:43:59.429Z,9.20
2022-09-29T23:46:31.547Z,9.20
2022-09-29T23:48:59.630Z,9.20
2022-09-29T23:51:27.499Z,9.10
2022-09-29T23:53:54.159Z,9.10
2022-09-29T23:56:21.544Z,9.00
2022-09-29T23:58:48.319Z,9.00
